PWSweather.com
Personal Weather Stations
Station Observations
NIGHT1
EastleighGB

EastleighGB

Lat: 50.966307, Lon: -1.380982

Elevation: 78

Station Type: Davis VP2 with daytime FARS

Latest ConditionsUpdated 11:50:00 AM GMT Thursday, Mar 5, 2015
Currently Today's Max Today's Min Today's Average
Temperature 50.9°F10.5°C 51.6°F10.9°C 28.7°F-1.8°C 35.6°F2.0°C
Dew Point 41.1°F5.1°C 41.9°F5.5°C 26.9°F-2.8°C 31.5°F-0.3°C
Winds 5.0 mph WSW8.0 kmh WSW 5.5 mph WSW8.9 kmh WSW - 1.2 mph 1.9 kmh
Wind Gusts 11.0 mph17.7 kmh 12.0 mph19.3 kmh - -
Humidity 69% 94% 69% 85%
Pressure 30.68 in1038.9 mb 30.71 in1040.0 mb 30.67 in1038.6 mb -
Hour Temp Dew Point Humidity Winds Wind Gusts Pressure Precip Precip Rate Daily Precip Total
11:50 AM 50.9°F10.5°C 41.1°F5.1°C 69% 5.0 mph WSW8.0 kmh WSW 11.0 mph17.7 kmh 30.68 in1038.9 mb 0.00 in0.0 mm 0.00 in/hr0.0 mm/hr 0.00 in0.0 mm
11:45 AM 51.4°F10.8°C 41.9°F5.5°C 70% 5.1 mph WSW8.2 kmh WSW 11.0 mph17.7 kmh 30.68 in1038.9 mb 0.00 in0.0 mm 0.00 in/hr0.0 mm/hr 0.00 in0.0 mm
11:40 AM 51.6°F10.9°C 41.8°F5.4°C 69% 5.1 mph SW8.2 kmh SW 10.0 mph16.1 kmh 30.68 in1038.9 mb 0.00 in0.0 mm 0.00 in/hr0.0 mm/hr 0.00 in0.0 mm
11:35 AM 51.1°F10.6°C 41.7°F5.4°C 70% 4.8 mph WSW7.7 kmh WSW 10.0 mph16.1 kmh 30.68 in1038.9 mb 0.00 in0.0 mm 0.00 in/hr0.0 mm/hr 0.00 in0.0 mm
11:30 AM 50.1°F10.1°C 41.4°F5.2°C 72% 5.0 mph WSW8.0 kmh WSW 11.0 mph17.7 kmh 30.68 in1038.9 mb 0.00 in0.0 mm 0.00 in/hr0.0 mm/hr 0.00 in0.0 mm
11:25 AM 49.8°F9.9°C 41.5°F5.3°C 73% 5.5 mph WSW8.9 kmh WSW 10.0 mph16.1 kmh 30.68 in1038.9 mb 0.00 in0.0 mm 0.00 in/hr0.0 mm/hr 0.00 in0.0 mm
11:20 AM 49.3°F9.6°C 41.0°F5.0°C 73% 5.0 mph WSW8.0 kmh WSW 12.0 mph19.3 kmh 30.69 in1039.3 mb 0.00 in0.0 mm 0.00 in/hr0.0 mm/hr 0.00 in0.0 mm
11:15 AM 49.6°F9.8°C 41.7°F5.4°C 74% 3.8 mph W6.1 kmh W 12.0 mph19.3 kmh 30.69 in1039.3 mb 0.00 in0.0 mm 0.00 in/hr0.0 mm/hr 0.00 in0.0 mm
11:10 AM 49.6°F9.8°C 41.7°F5.4°C 74% 3.6 mph W5.8 kmh W 9.0 mph14.5 kmh 30.69 in1039.3 mb 0.00 in0.0 mm 0.00 in/hr0.0 mm/hr 0.00 in0.0 mm
11:05 AM 49.4°F9.7°C 41.8°F5.4°C 75% 4.3 mph WNW6.9 kmh WNW 9.0 mph14.5 kmh 30.69 in1039.3 mb 0.00 in0.0 mm 0.00 in/hr0.0 mm/hr 0.00 in0.0 mm
11:00 AM 49.2°F9.6°C 41.6°F5.3°C 75% 4.4 mph WNW7.1 kmh WNW 9.0 mph14.5 kmh 30.69 in1039.3 mb 0.00 in0.0 mm 0.00 in/hr0.0 mm/hr 0.00 in0.0 mm
10:55 AM 48.3°F9.1°C 41.1°F5.1°C 76% 3.8 mph WNW6.1 kmh WNW 9.0 mph14.5 kmh 30.70 in1039.6 mb 0.00 in0.0 mm 0.00 in/hr0.0 mm/hr 0.00 in0.0 mm
10:50 AM 48.2°F9.0°C 41.3°F5.2°C 77% 3.5 mph W5.6 kmh W 9.0 mph14.5 kmh 30.70 in1039.6 mb 0.00 in0.0 mm 0.00 in/hr0.0 mm/hr 0.00 in0.0 mm
10:45 AM 48.2°F9.0°C 41.0°F5.0°C 76% 3.8 mph W6.1 kmh W 8.0 mph12.9 kmh 30.70 in1039.6 mb 0.00 in0.0 mm 0.00 in/hr0.0 mm/hr 0.00 in0.0 mm
10:40 AM 47.7°F8.7°C 41.2°F5.1°C 78% 4.0 mph WNW6.4 kmh WNW 8.0 mph12.9 kmh 30.70 in1039.6 mb 0.00 in0.0 mm 0.00 in/hr0.0 mm/hr 0.00 in0.0 mm
10:35 AM 47.1°F8.4°C 40.6°F4.8°C 78% 4.0 mph WNW6.4 kmh WNW 8.0 mph12.9 kmh 30.70 in1039.6 mb 0.00 in0.0 mm 0.00 in/hr0.0 mm/hr 0.00 in0.0 mm
10:30 AM 47.1°F8.4°C 40.6°F4.8°C 78% 3.7 mph WNW6.0 kmh WNW 9.0 mph14.5 kmh 30.70 in1039.6 mb 0.00 in0.0 mm 0.00 in/hr0.0 mm/hr 0.00 in0.0 mm
10:25 AM 46.6°F8.1°C 40.1°F4.5°C 78% 3.1 mph WNW5.0 kmh WNW 9.0 mph14.5 kmh 30.70 in1039.6 mb 0.00 in0.0 mm 0.00 in/hr0.0 mm/hr 0.00 in0.0 mm
10:20 AM 46.7°F8.2°C 40.2°F4.6°C 78% 2.3 mph WNW3.7 kmh WNW 8.0 mph12.9 kmh 30.70 in1039.6 mb 0.00 in0.0 mm 0.00 in/hr0.0 mm/hr 0.00 in0.0 mm
10:15 AM 46.5°F8.1°C 40.0°F4.4°C 78% 1.4 mph WNW2.3 kmh WNW 8.0 mph12.9 kmh 30.70 in1039.6 mb 0.00 in0.0 mm 0.00 in/hr0.0 mm/hr 0.00 in0.0 mm
10:10 AM 46.0°F7.8°C 39.5°F4.2°C 78% 1.0 mph WSW1.6 kmh WSW 6.0 mph9.7 kmh 30.70 in1039.6 mb 0.00 in0.0 mm 0.00 in/hr0.0 mm/hr 0.00 in0.0 mm
10:05 AM 45.3°F7.4°C 38.5°F3.6°C 77% 1.0 mph SSE1.6 kmh SSE 3.0 mph4.8 kmh 30.70 in1039.6 mb 0.00 in0.0 mm 0.00 in/hr0.0 mm/hr 0.00 in0.0 mm
10:00 AM 44.2°F6.8°C 37.4°F3.0°C 77% 1.0 mph SE1.6 kmh SE 3.0 mph4.8 kmh 30.70 in1039.6 mb 0.00 in0.0 mm 0.00 in/hr0.0 mm/hr 0.00 in0.0 mm
09:55 AM 43.6°F6.4°C 36.9°F2.7°C 77% 1.4 mph SE2.3 kmh SE 2.0 mph3.2 kmh 30.70 in1039.6 mb 0.00 in0.0 mm 0.00 in/hr0.0 mm/hr 0.00 in0.0 mm
09:50 AM 42.6°F5.9°C 36.2°F2.3°C 78% 1.8 mph SE2.9 kmh SE 3.0 mph4.8 kmh 30.70 in1039.6 mb 0.00 in0.0 mm 0.00 in/hr0.0 mm/hr 0.00 in0.0 mm
09:45 AM 41.9°F5.5°C 35.9°F2.2°C 79% 1.4 mph SE2.3 kmh SE 3.0 mph4.8 kmh 30.70 in1039.6 mb 0.00 in0.0 mm 0.00 in/hr0.0 mm/hr 0.00 in0.0 mm
09:40 AM 41.8°F5.4°C 35.8°F2.1°C 79% 1.0 mph SE1.6 kmh SE 3.0 mph4.8 kmh 30.70 in1039.6 mb 0.00 in0.0 mm 0.00 in/hr0.0 mm/hr 0.00 in0.0 mm
09:35 AM 41.4°F5.2°C 35.4°F1.9°C 79% 1.0 mph SE1.6 kmh SE 2.0 mph3.2 kmh 30.70 in1039.6 mb 0.00 in0.0 mm 0.00 in/hr0.0 mm/hr 0.00 in0.0 mm
09:30 AM 40.8°F4.9°C 35.4°F1.9°C 81% 1.0 mph SE1.6 kmh SE 2.0 mph3.2 kmh 30.70 in1039.6 mb 0.00 in0.0 mm 0.00 in/hr0.0 mm/hr 0.00 in0.0 mm
09:25 AM 40.0°F4.4°C 34.6°F1.4°C 81% 1.0 mph SE1.6 kmh SE 2.0 mph3.2 kmh 30.70 in1039.6 mb 0.00 in0.0 mm 0.00 in/hr0.0 mm/hr 0.00 in0.0 mm
09:20 AM 39.3°F4.1°C 34.3°F1.3°C 82% 1.1 mph SE1.8 kmh SE 3.0 mph4.8 kmh 30.70 in1039.6 mb 0.00 in0.0 mm 0.00 in/hr0.0 mm/hr 0.00 in0.0 mm
09:15 AM 38.8°F3.8°C 34.1°F1.2°C 83% 1.6 mph ESE2.6 kmh ESE 3.0 mph4.8 kmh 30.71 in1040.0 mb 0.00 in0.0 mm 0.00 in/hr0.0 mm/hr 0.00 in0.0 mm
09:10 AM 38.4°F3.6°C 33.7°F0.9°C 83% 1.9 mph ESE3.1 kmh ESE 3.0 mph4.8 kmh 30.71 in1040.0 mb 0.00 in0.0 mm 0.00 in/hr0.0 mm/hr 0.00 in0.0 mm
09:05 AM 37.8°F3.2°C 33.1°F0.6°C 83% 1.3 mph ESE2.1 kmh ESE 3.0 mph4.8 kmh 30.71 in1040.0 mb 0.00 in0.0 mm 0.00 in/hr0.0 mm/hr 0.00 in0.0 mm
09:00 AM 37.8°F3.2°C 33.4°F0.8°C 84% 0.5 mph ESE0.8 kmh ESE 3.0 mph4.8 kmh 30.70 in1039.6 mb 0.00 in0.0 mm 0.00 in/hr0.0 mm/hr 0.00 in0.0 mm
08:55 AM 37.7°F3.2°C 33.6°F0.9°C 85% 0.7 mph E1.1 kmh E 2.0 mph3.2 kmh 30.70 in1039.6 mb 0.00 in0.0 mm 0.00 in/hr0.0 mm/hr 0.00 in0.0 mm
08:50 AM 37.1°F2.8°C 33.0°F0.6°C 85% 1.2 mph E1.9 kmh E 3.0 mph4.8 kmh 30.71 in1040.0 mb 0.00 in0.0 mm 0.00 in/hr0.0 mm/hr 0.00 in0.0 mm
08:45 AM 36.5°F2.5°C 32.7°F0.4°C 86% 1.0 mph SE1.6 kmh SE 3.0 mph4.8 kmh 30.70 in1039.6 mb 0.00 in0.0 mm 0.00 in/hr0.0 mm/hr 0.00 in0.0 mm
08:40 AM 36.1°F2.3°C 32.3°F0.2°C 86% 0.6 mph S1.0 kmh S 3.0 mph4.8 kmh 30.71 in1040.0 mb 0.00 in0.0 mm 0.00 in/hr0.0 mm/hr 0.00 in0.0 mm
08:35 AM 35.9°F2.2°C 32.4°F0.2°C 87% 0.7 mph S1.1 kmh S 1.0 mph1.6 kmh 30.70 in1039.6 mb 0.00 in0.0 mm 0.00 in/hr0.0 mm/hr 0.00 in0.0 mm
08:30 AM 35.5°F1.9°C 32.3°F0.2°C 88% 0.6 mph S1.0 kmh S 2.0 mph3.2 kmh 30.70 in1039.6 mb 0.00 in0.0 mm 0.00 in/hr0.0 mm/hr 0.00 in0.0 mm
08:25 AM 34.7°F1.5°C 31.5°F-0.3°C 88% 0.1 mph S0.2 kmh S 2.0 mph3.2 kmh 30.70 in1039.6 mb 0.00 in0.0 mm 0.00 in/hr0.0 mm/hr 0.00 in0.0 mm
08:20 AM 34.2°F1.2°C 31.3°F-0.4°C 89% Calm Calm 2.0 mph3.2 kmh 30.70 in1039.6 mb 0.00 in0.0 mm 0.00 in/hr0.0 mm/hr 0.00 in0.0 mm
08:15 AM 34.0°F1.1°C 31.4°F-0.3°C 90% Calm Calm -- 30.70 in1039.6 mb 0.00 in0.0 mm 0.00 in/hr0.0 mm/hr 0.00 in0.0 mm
08:10 AM 33.5°F0.8°C 30.9°F-0.6°C 90% Calm Calm -- 30.70 in1039.6 mb 0.00 in0.0 mm 0.00 in/hr0.0 mm/hr 0.00 in0.0 mm
08:05 AM 33.2°F0.7°C 30.9°F-0.6°C 91% Calm Calm -- 30.70 in1039.6 mb 0.00 in0.0 mm 0.00 in/hr0.0 mm/hr 0.00 in0.0 mm
08:00 AM 32.8°F0.4°C 30.5°F-0.8°C 91% Calm Calm -- 30.70 in1039.6 mb 0.00 in0.0 mm 0.00 in/hr0.0 mm/hr 0.00 in0.0 mm
07:55 AM 32.5°F0.3°C 30.4°F-0.9°C 92% Calm Calm -- 30.70 in1039.6 mb 0.00 in0.0 mm 0.00 in/hr0.0 mm/hr 0.00 in0.0 mm
07:50 AM 32.3°F0.2°C 30.2°F-1.0°C 92% Calm Calm -- 30.70 in1039.6 mb 0.00 in0.0 mm 0.00 in/hr0.0 mm/hr 0.00 in0.0 mm
07:45 AM 31.9°F-0.1°C 30.1°F-1.1°C 93% Calm Calm -- 30.70 in1039.6 mb 0.00 in0.0 mm 0.00 in/hr0.0 mm/hr 0.00 in0.0 mm
07:40 AM 31.4°F-0.3°C 29.6°F-1.3°C 93% Calm Calm -- 30.70 in1039.6 mb 0.00 in0.0 mm 0.00 in/hr0.0 mm/hr 0.00 in0.0 mm
07:35 AM 31.3°F-0.4°C 29.5°F-1.4°C 93% Calm Calm -- 30.70 in1039.6 mb 0.00 in0.0 mm 0.00 in/hr0.0 mm/hr 0.00 in0.0 mm
07:30 AM 30.9°F-0.6°C 29.4°F-1.4°C 94% Calm Calm -- 30.70 in1039.6 mb 0.00 in0.0 mm 0.00 in/hr0.0 mm/hr 0.00 in0.0 mm
07:25 AM 30.3°F-0.9°C 28.8°F-1.8°C 94% Calm Calm -- 30.70 in1039.6 mb 0.00 in0.0 mm 0.00 in/hr0.0 mm/hr 0.00 in0.0 mm
07:20 AM 29.8°F-1.2°C 28.0°F-2.2°C 93% Calm Calm -- 30.70 in1039.6 mb 0.00 in0.0 mm 0.00 in/hr0.0 mm/hr 0.00 in0.0 mm
07:15 AM 29.7°F-1.3°C 28.2°F-2.1°C 94% Calm Calm -- 30.70 in1039.6 mb 0.00 in0.0 mm 0.00 in/hr0.0 mm/hr 0.00 in0.0 mm
07:10 AM 29.3°F-1.5°C 27.5°F-2.5°C 93% Calm Calm -- 30.70 in1039.6 mb 0.00 in0.0 mm 0.00 in/hr0.0 mm/hr 0.00 in0.0 mm
07:05 AM 29.1°F-1.6°C 27.3°F-2.6°C 93% Calm Calm -- 30.70 in1039.6 mb 0.00 in0.0 mm 0.00 in/hr0.0 mm/hr 0.00 in0.0 mm
07:00 AM 28.8°F-1.8°C 27.0°F-2.8°C 93% Calm Calm 1.0 mph1.6 kmh 30.70 in1039.6 mb 0.00 in0.0 mm 0.00 in/hr0.0 mm/hr 0.00 in0.0 mm
06:55 AM 28.7°F-1.8°C 26.9°F-2.8°C 93% Calm Calm 2.0 mph3.2 kmh 30.70 in1039.6 mb 0.00 in0.0 mm 0.00 in/hr0.0 mm/hr 0.00 in0.0 mm
06:50 AM 28.8°F-1.8°C 27.0°F-2.8°C 93% Calm Calm 2.0 mph3.2 kmh 30.70 in1039.6 mb 0.00 in0.0 mm 0.00 in/hr0.0 mm/hr 0.00 in0.0 mm
06:45 AM 28.9°F-1.7°C 27.1°F-2.7°C 93% Calm Calm -- 30.70 in1039.6 mb 0.00 in0.0 mm 0.00 in/hr0.0 mm/hr 0.00 in0.0 mm
06:40 AM 28.9°F-1.7°C 27.1°F-2.7°C 93% Calm Calm -- 30.70 in1039.6 mb 0.00 in0.0 mm 0.00 in/hr0.0 mm/hr 0.00 in0.0 mm
06:35 AM 28.7°F-1.8°C 26.9°F-2.8°C 93% Calm Calm -- 30.70 in1039.6 mb 0.00 in0.0 mm 0.00 in/hr0.0 mm/hr 0.00 in0.0 mm
06:30 AM 28.8°F-1.8°C 27.0°F-2.8°C 93% Calm Calm -- 30.70 in1039.6 mb 0.00 in0.0 mm 0.00 in/hr0.0 mm/hr 0.00 in0.0 mm
06:25 AM 28.8°F-1.8°C 27.0°F-2.8°C 93% Calm Calm -- 30.70 in1039.6 mb 0.00 in0.0 mm 0.00 in/hr0.0 mm/hr 0.00 in0.0 mm
06:20 AM 29.0°F-1.7°C 27.2°F-2.7°C 93% Calm Calm -- 30.70 in1039.6 mb 0.00 in0.0 mm 0.00 in/hr0.0 mm/hr 0.00 in0.0 mm
06:15 AM 29.2°F-1.6°C 27.4°F-2.6°C 93% Calm Calm -- 30.70 in1039.6 mb 0.00 in0.0 mm 0.00 in/hr0.0 mm/hr 0.00 in0.0 mm
06:10 AM 29.2°F-1.6°C 27.4°F-2.6°C 93% Calm Calm -- 30.70 in1039.6 mb 0.00 in0.0 mm 0.00 in/hr0.0 mm/hr 0.00 in0.0 mm
06:05 AM 28.9°F-1.7°C 26.9°F-2.8°C 92% Calm Calm -- 30.71 in1040.0 mb 0.00 in0.0 mm 0.00 in/hr0.0 mm/hr 0.00 in0.0 mm
06:00 AM 29.1°F-1.6°C 27.1°F-2.7°C 92% Calm Calm -- 30.70 in1039.6 mb 0.00 in0.0 mm 0.00 in/hr0.0 mm/hr 0.00 in0.0 mm
05:55 AM 29.2°F-1.6°C 27.2°F-2.7°C 92% Calm Calm -- 30.70 in1039.6 mb 0.00 in0.0 mm 0.00 in/hr0.0 mm/hr 0.00 in0.0 mm
05:50 AM 29.3°F-1.5°C 27.3°F-2.6°C 92% Calm Calm -- 30.70 in1039.6 mb 0.00 in0.0 mm 0.00 in/hr0.0 mm/hr 0.00 in0.0 mm
05:45 AM 29.3°F-1.5°C 27.3°F-2.6°C 92% Calm Calm -- 30.70 in1039.6 mb 0.00 in0.0 mm 0.00 in/hr0.0 mm/hr 0.00 in0.0 mm
05:40 AM 29.3°F-1.5°C 27.3°F-2.6°C 92% Calm Calm -- 30.70 in1039.6 mb 0.00 in0.0 mm 0.00 in/hr0.0 mm/hr 0.00 in0.0 mm
05:35 AM 29.6°F-1.3°C 27.6°F-2.4°C 92% Calm Calm -- 30.70 in1039.6 mb 0.00 in0.0 mm 0.00 in/hr0.0 mm/hr 0.00 in0.0 mm
05:30 AM 29.7°F-1.3°C 27.7°F-2.4°C 92% Calm Calm -- 30.70 in1039.6 mb 0.00 in0.0 mm 0.00 in/hr0.0 mm/hr 0.00 in0.0 mm
05:25 AM 29.7°F-1.3°C 27.7°F-2.4°C 92% Calm Calm -- 30.70 in1039.6 mb 0.00 in0.0 mm 0.00 in/hr0.0 mm/hr 0.00 in0.0 mm
05:20 AM 29.5°F-1.4°C 27.5°F-2.5°C 92% Calm Calm -- 30.70 in1039.6 mb 0.00 in0.0 mm 0.00 in/hr0.0 mm/hr 0.00 in0.0 mm
05:15 AM 29.7°F-1.3°C 27.7°F-2.4°C 92% Calm Calm -- 30.70 in1039.6 mb 0.00 in0.0 mm 0.00 in/hr0.0 mm/hr 0.00 in0.0 mm
05:10 AM 29.9°F-1.2°C 27.9°F-2.3°C 92% Calm Calm -- 30.70 in1039.6 mb 0.00 in0.0 mm 0.00 in/hr0.0 mm/hr 0.00 in0.0 mm
05:05 AM 29.9°F-1.2°C 27.6°F-2.4°C 91% Calm Calm -- 30.70 in1039.6 mb 0.00 in0.0 mm 0.00 in/hr0.0 mm/hr 0.00 in0.0 mm
05:00 AM 29.9°F-1.2°C 27.6°F-2.4°C 91% Calm Calm 2.0 mph3.2 kmh 30.70 in1039.6 mb 0.00 in0.0 mm 0.00 in/hr0.0 mm/hr 0.00 in0.0 mm
04:55 AM 30.0°F-1.1°C 27.7°F-2.4°C 91% Calm Calm 2.0 mph3.2 kmh 30.70 in1039.6 mb 0.00 in0.0 mm 0.00 in/hr0.0 mm/hr 0.00 in0.0 mm
04:50 AM 30.3°F-0.9°C 28.0°F-2.2°C 91% Calm Calm 2.0 mph3.2 kmh 30.70 in1039.6 mb 0.00 in0.0 mm 0.00 in/hr0.0 mm/hr 0.00 in0.0 mm
04:45 AM 30.5°F-0.8°C 28.2°F-2.1°C 91% Calm Calm 2.0 mph3.2 kmh 30.69 in1039.3 mb 0.00 in0.0 mm 0.00 in/hr0.0 mm/hr 0.00 in0.0 mm
04:40 AM 30.3°F-0.9°C 28.0°F-2.2°C 91% Calm Calm 2.0 mph3.2 kmh 30.70 in1039.6 mb 0.00 in0.0 mm 0.00 in/hr0.0 mm/hr 0.00 in0.0 mm
04:35 AM 30.4°F-0.9°C 28.1°F-2.2°C 91% Calm Calm -- 30.70 in1039.6 mb 0.00 in0.0 mm 0.00 in/hr0.0 mm/hr 0.00 in0.0 mm
04:30 AM 30.5°F-0.8°C 28.2°F-2.1°C 91% Calm Calm 1.0 mph1.6 kmh 30.69 in1039.3 mb 0.00 in0.0 mm 0.00 in/hr0.0 mm/hr 0.00 in0.0 mm
04:25 AM 30.6°F-0.8°C 28.3°F-2.1°C 91% Calm Calm 2.0 mph3.2 kmh 30.69 in1039.3 mb 0.00 in0.0 mm 0.00 in/hr0.0 mm/hr 0.00 in0.0 mm
04:20 AM 30.5°F-0.8°C 28.2°F-2.1°C 91% Calm Calm 2.0 mph3.2 kmh 30.69 in1039.3 mb 0.00 in0.0 mm 0.00 in/hr0.0 mm/hr 0.00 in0.0 mm
04:15 AM 30.3°F-0.9°C 27.7°F-2.4°C 90% Calm Calm -- 30.69 in1039.3 mb 0.00 in0.0 mm 0.00 in/hr0.0 mm/hr 0.00 in0.0 mm
04:10 AM 30.5°F-0.8°C 27.9°F-2.3°C 90% Calm Calm 1.0 mph1.6 kmh 30.69 in1039.3 mb 0.00 in0.0 mm 0.00 in/hr0.0 mm/hr 0.00 in0.0 mm
04:00 AM 30.6°F-0.8°C 28.0°F-2.2°C 90% Calm Calm 2.0 mph3.2 kmh 30.69 in1039.3 mb 0.00 in0.0 mm 0.00 in/hr0.0 mm/hr 0.00 in0.0 mm
03:55 AM 30.6°F-0.8°C 28.0°F-2.2°C 90% Calm Calm 2.0 mph3.2 kmh 30.69 in1039.3 mb 0.00 in0.0 mm 0.00 in/hr0.0 mm/hr 0.00 in0.0 mm
03:50 AM 30.8°F-0.7°C 28.2°F-2.1°C 90% Calm Calm 1.0 mph1.6 kmh 30.69 in1039.3 mb 0.00 in0.0 mm 0.00 in/hr0.0 mm/hr 0.00 in0.0 mm
03:45 AM 31.1°F-0.5°C 28.5°F-1.9°C 90% Calm Calm 1.0 mph1.6 kmh 30.69 in1039.3 mb 0.00 in0.0 mm 0.00 in/hr0.0 mm/hr 0.00 in0.0 mm
03:40 AM 31.2°F-0.4°C 28.3°F-2.1°C 89% Calm Calm 1.0 mph1.6 kmh 30.69 in1039.3 mb 0.00 in0.0 mm 0.00 in/hr0.0 mm/hr 0.00 in0.0 mm
03:35 AM 31.3°F-0.4°C 28.4°F-2.0°C 89% Calm Calm -- 30.69 in1039.3 mb 0.00 in0.0 mm 0.00 in/hr0.0 mm/hr 0.00 in0.0 mm
03:30 AM 31.3°F-0.4°C 28.4°F-2.0°C 89% Calm Calm 1.0 mph1.6 kmh 30.69 in1039.3 mb 0.00 in0.0 mm 0.00 in/hr0.0 mm/hr 0.00 in0.0 mm
03:25 AM 31.3°F-0.4°C 28.4°F-2.0°C 89% 0.5 mph SSE0.8 kmh SSE 1.0 mph1.6 kmh 30.69 in1039.3 mb 0.00 in0.0 mm 0.00 in/hr0.0 mm/hr 0.00 in0.0 mm
03:20 AM 31.5°F-0.3°C 28.4°F-2.0°C 88% 1.0 mph S1.6 kmh S 2.0 mph3.2 kmh 30.69 in1039.3 mb 0.00 in0.0 mm 0.00 in/hr0.0 mm/hr 0.00 in0.0 mm
03:15 AM 31.7°F-0.2°C 28.6°F-1.9°C 88% 0.5 mph SW0.8 kmh SW 2.0 mph3.2 kmh 30.69 in1039.3 mb 0.00 in0.0 mm 0.00 in/hr0.0 mm/hr 0.00 in0.0 mm
03:10 AM 31.7°F-0.2°C 28.6°F-1.9°C 88% 0.4 mph SW0.6 kmh SW 2.0 mph3.2 kmh 30.69 in1039.3 mb 0.00 in0.0 mm 0.00 in/hr0.0 mm/hr 0.00 in0.0 mm
03:05 AM 32.0°F0.0°C 28.6°F-1.9°C 87% 0.9 mph W1.4 kmh W 2.0 mph3.2 kmh 30.69 in1039.3 mb 0.00 in0.0 mm 0.00 in/hr0.0 mm/hr 0.00 in0.0 mm
03:00 AM 32.4°F0.2°C 29.0°F-1.7°C 87% 1.4 mph W2.3 kmh W 2.0 mph3.2 kmh 30.69 in1039.3 mb 0.00 in0.0 mm 0.00 in/hr0.0 mm/hr 0.00 in0.0 mm
02:55 AM 33.0°F0.6°C 29.6°F-1.3°C 87% 2.2 mph WNW3.5 kmh WNW 4.0 mph6.4 kmh 30.69 in1039.3 mb 0.00 in0.0 mm 0.00 in/hr0.0 mm/hr 0.00 in0.0 mm
02:50 AM 33.6°F0.9°C 30.1°F-1.1°C 87% 2.3 mph WNW3.7 kmh WNW 4.0 mph6.4 kmh 30.69 in1039.3 mb 0.00 in0.0 mm 0.00 in/hr0.0 mm/hr 0.00 in0.0 mm
02:45 AM 33.4°F0.8°C 30.2°F-1.0°C 88% 1.8 mph NW2.9 kmh NW 4.0 mph6.4 kmh 30.69 in1039.3 mb 0.00 in0.0 mm 0.00 in/hr0.0 mm/hr 0.00 in0.0 mm
02:40 AM 33.0°F0.6°C 29.8°F-1.2°C 88% 1.3 mph NW2.1 kmh NW 4.0 mph6.4 kmh 30.69 in1039.3 mb 0.00 in0.0 mm 0.00 in/hr0.0 mm/hr 0.00 in0.0 mm
02:35 AM 32.5°F0.3°C 29.3°F-1.5°C 88% 1.0 mph NW1.6 kmh NW 3.0 mph4.8 kmh 30.69 in1039.3 mb 0.00 in0.0 mm 0.00 in/hr0.0 mm/hr 0.00 in0.0 mm
02:30 AM 32.2°F0.1°C 29.0°F-1.7°C 88% 1.0 mph NW1.6 kmh NW 3.0 mph4.8 kmh 30.68 in1038.9 mb 0.00 in0.0 mm 0.00 in/hr0.0 mm/hr 0.00 in0.0 mm
02:25 AM 32.3°F0.2°C 28.9°F-1.7°C 87% 0.8 mph NW1.3 kmh NW 2.0 mph3.2 kmh 30.68 in1038.9 mb 0.00 in0.0 mm 0.00 in/hr0.0 mm/hr 0.00 in0.0 mm
02:20 AM 32.4°F0.2°C 29.0°F-1.7°C 87% 0.3 mph NW0.5 kmh NW 2.0 mph3.2 kmh 30.68 in1038.9 mb 0.00 in0.0 mm 0.00 in/hr0.0 mm/hr 0.00 in0.0 mm
02:15 AM 32.5°F0.3°C 29.1°F-1.6°C 87% 0.5 mph NW0.8 kmh NW 2.0 mph3.2 kmh 30.68 in1038.9 mb 0.00 in0.0 mm 0.00 in/hr0.0 mm/hr 0.00 in0.0 mm
02:10 AM 32.6°F0.3°C 29.2°F-1.6°C 87% 1.0 mph NW1.6 kmh NW 2.0 mph3.2 kmh 30.68 in1038.9 mb 0.00 in0.0 mm 0.00 in/hr0.0 mm/hr 0.00 in0.0 mm
02:05 AM 32.8°F0.4°C 29.1°F-1.6°C 86% 0.5 mph NW0.8 kmh NW 3.0 mph4.8 kmh 30.68 in1038.9 mb 0.00 in0.0 mm 0.00 in/hr0.0 mm/hr 0.00 in0.0 mm
02:00 AM 33.0°F0.6°C 29.3°F-1.5°C 86% Calm Calm 3.0 mph4.8 kmh 30.68 in1038.9 mb 0.00 in0.0 mm 0.00 in/hr0.0 mm/hr 0.00 in0.0 mm
01:55 AM 33.1°F0.6°C 29.1°F-1.6°C 85% 0.2 mph NW0.3 kmh NW 2.0 mph3.2 kmh 30.69 in1039.3 mb 0.00 in0.0 mm 0.00 in/hr0.0 mm/hr 0.00 in0.0 mm
01:50 AM 33.3°F0.7°C 29.3°F-1.5°C 85% 0.7 mph NW1.1 kmh NW 1.0 mph1.6 kmh 30.68 in1038.9 mb 0.00 in0.0 mm 0.00 in/hr0.0 mm/hr 0.00 in0.0 mm
01:45 AM 33.7°F0.9°C 29.4°F-1.4°C 84% 1.2 mph NW1.9 kmh NW 3.0 mph4.8 kmh 30.68 in1038.9 mb 0.00 in0.0 mm 0.00 in/hr0.0 mm/hr 0.00 in0.0 mm
01:40 AM 34.2°F1.2°C 29.9°F-1.2°C 84% 1.2 mph NW1.9 kmh NW 4.0 mph6.4 kmh 30.68 in1038.9 mb 0.00 in0.0 mm 0.00 in/hr0.0 mm/hr 0.00 in0.0 mm
01:35 AM 34.6°F1.4°C 30.0°F-1.1°C 83% 1.0 mph WNW1.6 kmh WNW 4.0 mph6.4 kmh 30.68 in1038.9 mb 0.00 in0.0 mm 0.00 in/hr0.0 mm/hr 0.00 in0.0 mm
01:30 AM 34.7°F1.5°C 30.1°F-1.1°C 83% 1.0 mph W1.6 kmh W 3.0 mph4.8 kmh 30.68 in1038.9 mb 0.00 in0.0 mm 0.00 in/hr0.0 mm/hr 0.00 in0.0 mm
01:25 AM 34.8°F1.6°C 30.2°F-1.0°C 83% 0.6 mph NW1.0 kmh NW 3.0 mph4.8 kmh 30.68 in1038.9 mb 0.00 in0.0 mm 0.00 in/hr0.0 mm/hr 0.00 in0.0 mm
01:20 AM 34.9°F1.6°C 30.3°F-0.9°C 83% 0.5 mph NNW0.8 kmh NNW 3.0 mph4.8 kmh 30.68 in1038.9 mb 0.00 in0.0 mm 0.00 in/hr0.0 mm/hr 0.00 in0.0 mm
01:15 AM 35.2°F1.8°C 30.3°F-0.9°C 82% 0.9 mph N1.4 kmh N 2.0 mph3.2 kmh 30.68 in1038.9 mb 0.00 in0.0 mm 0.00 in/hr0.0 mm/hr 0.00 in0.0 mm
01:10 AM 35.6°F2.0°C 30.3°F-0.9°C 81% 1.0 mph N1.6 kmh N 2.0 mph3.2 kmh 30.68 in1038.9 mb 0.00 in0.0 mm 0.00 in/hr0.0 mm/hr 0.00 in0.0 mm
01:05 AM 36.1°F2.3°C 30.5°F-0.8°C 80% 1.6 mph NNW2.6 kmh NNW 2.0 mph3.2 kmh 30.68 in1038.9 mb 0.00 in0.0 mm 0.00 in/hr0.0 mm/hr 0.00 in0.0 mm
01:00 AM 36.6°F2.6°C 31.0°F-0.6°C 80% 2.6 mph NW4.2 kmh NW 6.0 mph9.7 kmh 30.68 in1038.9 mb 0.00 in0.0 mm 0.00 in/hr0.0 mm/hr 0.00 in0.0 mm
12:55 AM 36.9°F2.7°C 31.3°F-0.4°C 80% 2.8 mph WNW4.5 kmh WNW 6.0 mph9.7 kmh 30.68 in1038.9 mb 0.00 in0.0 mm 0.00 in/hr0.0 mm/hr 0.00 in0.0 mm
12:50 AM 36.8°F2.7°C 31.2°F-0.4°C 80% 2.3 mph W3.7 kmh W 6.0 mph9.7 kmh 30.68 in1038.9 mb 0.00 in0.0 mm 0.00 in/hr0.0 mm/hr 0.00 in0.0 mm
12:45 AM 36.8°F2.7°C 31.2°F-0.4°C 80% 2.0 mph W3.2 kmh W 6.0 mph9.7 kmh 30.68 in1038.9 mb 0.00 in0.0 mm 0.00 in/hr0.0 mm/hr 0.00 in0.0 mm
12:40 AM 36.8°F2.7°C 31.2°F-0.4°C 80% 2.5 mph W4.0 kmh W 4.0 mph6.4 kmh 30.68 in1038.9 mb 0.00 in0.0 mm 0.00 in/hr0.0 mm/hr 0.00 in0.0 mm
12:35 AM 36.9°F2.7°C 31.3°F-0.4°C 80% 3.0 mph WNW4.8 kmh WNW 4.0 mph6.4 kmh 30.67 in1038.6 mb 0.00 in0.0 mm 0.00 in/hr0.0 mm/hr 0.00 in0.0 mm
12:30 AM 36.8°F2.7°C 31.2°F-0.4°C 80% 2.7 mph WNW4.3 kmh WNW 5.0 mph8.0 kmh 30.67 in1038.6 mb 0.00 in0.0 mm 0.00 in/hr0.0 mm/hr 0.00 in0.0 mm
12:25 AM 36.9°F2.7°C 31.3°F-0.4°C 80% 2.2 mph WNW3.5 kmh WNW 5.0 mph8.0 kmh 30.67 in1038.6 mb 0.00 in0.0 mm 0.00 in/hr0.0 mm/hr 0.00 in0.0 mm
12:20 AM 36.8°F2.7°C 31.2°F-0.4°C 80% 2.3 mph WNW3.7 kmh WNW 4.0 mph6.4 kmh 30.67 in1038.6 mb 0.00 in0.0 mm 0.00 in/hr0.0 mm/hr 0.00 in0.0 mm
12:15 AM 36.9°F2.7°C 31.0°F-0.6°C 79% 2.8 mph NW4.5 kmh NW 4.0 mph6.4 kmh 30.67 in1038.6 mb 0.00 in0.0 mm 0.00 in/hr0.0 mm/hr 0.00 in0.0 mm
12:10 AM 37.0°F2.8°C 31.1°F-0.5°C 79% 2.6 mph WNW4.2 kmh WNW 5.0 mph8.0 kmh 30.67 in1038.6 mb 0.00 in0.0 mm 0.00 in/hr0.0 mm/hr 0.00 in0.0 mm
12:05 AM 36.9°F2.7°C 31.0°F-0.6°C 79% 2.1 mph WNW3.4 kmh WNW 6.0 mph9.7 kmh 30.67 in1038.6 mb 0.00 in0.0 mm 0.00 in/hr0.0 mm/hr 0.00 in0.0 mm
12:00 AM 37.0°F2.8°C 31.1°F-0.5°C 79% 2.0 mph NW3.2 kmh NW 4.0 mph6.4 kmh 30.67 in1038.6 mb 0.00 in0.0 mm 0.00 in/hr0.0 mm/hr 0.00 in0.0 mm